createdAt,value
2024-05-09T00:00:31.590Z,121.11
2024-05-09T00:01:28.166Z,121.28
2024-05-09T00:02:27.252Z,121.86
2024-05-09T00:03:27.188Z,122.05
2024-05-09T00:04:27.220Z,121.66
2024-05-09T00:05:27.235Z,120.76
2024-05-09T00:06:27.197Z,123.98
2024-05-09T00:07:27.211Z,123.25
2024-05-09T00:08:27.232Z,123.73
2024-05-09T00:09:27.233Z,122.96
2024-05-09T00:10:35.030Z,122.07
2024-05-09T00:11:28.223Z,122.21
2024-05-09T00:12:27.246Z,122.48
2024-05-09T00:13:27.179Z,122.80
2024-05-09T00:14:27.264Z,122.56
2024-05-09T00:15:27.159Z,122.57
2024-05-09T00:16:27.185Z,123.11
2024-05-09T00:17:27.330Z,122.00
2024-05-09T00:18:27.428Z,120.78
2024-05-09T00:19:27.282Z,120.71
2024-05-09T00:20:33.434Z,120.09
2024-05-09T00:21:28.202Z,120.27
2024-05-09T00:22:27.217Z,120.65
2024-05-09T00:23:27.260Z,120.91
2024-05-09T00:24:27.173Z,121.52
2024-05-09T00:25:27.177Z,122.59
2024-05-09T00:26:27.336Z,122.94
2024-05-09T00:27:27.192Z,120.89
2024-05-09T00:28:27.206Z,121.88
2024-05-09T00:29:27.336Z,120.53
2024-05-09T00:30:33.658Z,121.91
2024-05-09T00:31:28.209Z,122.03
2024-05-09T00:32:27.761Z,122.00
2024-05-09T00:33:27.293Z,121.28
2024-05-09T00:34:27.279Z,121.38
2024-05-09T00:35:27.243Z,121.26
2024-05-09T00:36:27.188Z,121.55
2024-05-09T00:37:27.222Z,121.49
2024-05-09T00:38:27.243Z,119.08
2024-05-09T00:39:27.193Z,121.88
2024-05-09T00:40:35.670Z,120.12
2024-05-09T00:41:28.232Z,120.26
2024-05-09T00:42:27.203Z,120.39
2024-05-09T00:43:27.210Z,120.86
2024-05-09T00:44:27.274Z,120.41
2024-05-09T00:45:27.202Z,120.04
2024-05-09T00:46:27.196Z,120.21
2024-05-09T00:47:27.852Z,118.76
2024-05-09T00:48:27.414Z,118.15
2024-05-09T00:49:27.357Z,120.12
2024-05-09T00:50:35.474Z,117.41
2024-05-09T00:51:28.246Z,117.54
2024-05-09T00:52:27.264Z,117.97
2024-05-09T00:53:27.309Z,118.29
2024-05-09T00:54:27.214Z,118.59
2024-05-09T00:55:27.227Z,117.80
2024-05-09T00:56:27.344Z,119.51
2024-05-09T00:57:27.271Z,119.40
2024-05-09T00:58:27.222Z,117.09
2024-05-09T00:59:27.373Z,120.07
2024-05-09T01:00:35.543Z,119.38
2024-05-09T01:01:28.290Z,119.46
2024-05-09T01:02:27.804Z,119.52
2024-05-09T01:03:27.784Z,119.42
2024-05-09T01:04:27.268Z,117.79
2024-05-09T01:05:27.267Z,117.90
2024-05-09T01:06:27.271Z,117.23
2024-05-09T01:07:27.265Z,117.41
2024-05-09T01:08:27.269Z,116.09
2024-05-09T01:09:27.251Z,117.82
2024-05-09T01:11:27.330Z,116.47
2024-05-09T01:12:27.422Z,116.70
2024-05-09T01:13:27.269Z,115.66
2024-05-09T01:14:27.277Z,116.21
2024-05-09T01:15:27.242Z,116.60
2024-05-09T01:16:27.271Z,115.71
2024-05-09T01:17:27.417Z,116.42
2024-05-09T01:18:27.357Z,118.00
2024-05-09T01:19:27.412Z,116.05
2024-05-09T01:20:36.824Z,117.48
2024-05-09T01:21:28.265Z,117.58
2024-05-09T01:22:27.274Z,117.49
2024-05-09T01:23:27.318Z,117.48
2024-05-09T01:24:27.245Z,116.06
2024-05-09T01:25:27.258Z,116.68
2024-05-09T01:26:27.296Z,114.98
2024-05-09T01:27:27.275Z,114.79
2024-05-09T01:28:27.276Z,115.33
2024-05-09T01:29:27.272Z,115.79
2024-05-09T01:30:33.942Z,116.77
2024-05-09T01:31:28.378Z,116.84
2024-05-09T01:32:27.477Z,116.98
2024-05-09T01:33:27.652Z,116.84
2024-05-09T01:34:27.287Z,117.22
2024-05-09T01:35:27.351Z,116.63
2024-05-09T01:36:27.281Z,116.53
2024-05-09T01:37:27.279Z,115.08
2024-05-09T01:38:27.285Z,115.87
2024-05-09T01:39:27.279Z,116.45
2024-05-09T01:40:36.361Z,115.73
2024-05-09T01:41:28.351Z,115.78
2024-05-09T01:42:27.312Z,115.89
2024-05-09T01:43:27.283Z,115.96
2024-05-09T01:44:27.376Z,117.12
2024-05-09T01:45:27.291Z,114.68
2024-05-09T01:46:27.287Z,115.31
2024-05-09T01:47:27.413Z,114.49
2024-05-09T01:48:27.366Z,115.22
2024-05-09T01:49:27.346Z,115.77
2024-05-09T01:51:27.305Z,116.21
2024-05-09T01:52:27.309Z,115.64
2024-05-09T01:53:27.322Z,112.95
2024-05-09T01:54:27.283Z,116.72
2024-05-09T01:55:27.294Z,114.43
2024-05-09T01:56:27.399Z,114.46
2024-05-09T01:57:27.345Z,114.96
2024-05-09T01:58:27.344Z,112.72
2024-05-09T01:59:27.554Z,111.31
2024-05-09T02:00:36.366Z,112.90
2024-05-09T02:01:28.443Z,113.08
2024-05-09T02:02:28.359Z,113.19
2024-05-09T02:03:27.451Z,114.12
2024-05-09T02:04:27.484Z,115.25
2024-05-09T02:05:27.406Z,115.99
2024-05-09T02:06:27.333Z,116.17
2024-05-09T02:07:27.328Z,115.35
2024-05-09T02:08:27.348Z,114.87
2024-05-09T02:09:27.319Z,115.21
2024-05-09T02:11:27.480Z,114.88
2024-05-09T02:12:27.488Z,115.56
2024-05-09T02:13:27.406Z,116.50
2024-05-09T02:14:27.699Z,115.80
2024-05-09T02:15:27.477Z,114.09
2024-05-09T02:16:27.478Z,113.46
2024-05-09T02:17:27.706Z,113.19
2024-05-09T02:18:27.596Z,112.74
2024-05-09T02:19:27.645Z,111.69
2024-05-09T02:20:33.881Z,113.20
2024-05-09T02:21:28.579Z,113.26
2024-05-09T02:22:27.585Z,113.26
2024-05-09T02:23:27.654Z,113.26
2024-05-09T02:24:27.582Z,114.24
2024-05-09T02:25:27.606Z,113.62
2024-05-09T02:26:27.668Z,112.14
2024-05-09T02:27:27.602Z,111.70
2024-05-09T02:28:27.607Z,111.29
2024-05-09T02:29:27.686Z,111.95
2024-05-09T02:30:36.326Z,109.22
2024-05-09T02:31:28.600Z,109.38
2024-05-09T02:32:27.714Z,109.82
2024-05-09T02:33:27.894Z,109.92
2024-05-09T02:34:27.602Z,111.94
2024-05-09T02:35:27.703Z,109.49
2024-05-09T02:36:27.602Z,113.00
2024-05-09T02:37:27.629Z,111.82
2024-05-09T02:38:27.589Z,109.18
2024-05-09T02:39:27.595Z,111.58
2024-05-09T02:40:35.741Z,110.81
2024-05-09T02:41:28.666Z,111.56
2024-05-09T02:42:27.625Z,111.88
2024-05-09T02:43:27.603Z,111.73
2024-05-09T02:44:27.687Z,111.86
2024-05-09T02:45:27.603Z,112.03
2024-05-09T02:46:27.764Z,110.81
2024-05-09T02:47:27.744Z,112.29
2024-05-09T02:48:27.742Z,109.87
2024-05-09T02:49:27.731Z,108.93
2024-05-09T02:50:34.434Z,108.78
2024-05-09T02:51:28.632Z,108.97
2024-05-09T02:52:27.625Z,109.06
2024-05-09T02:53:27.656Z,110.11
2024-05-09T02:54:27.634Z,110.16
2024-05-09T02:55:27.612Z,110.77
2024-05-09T02:56:27.735Z,109.62
2024-05-09T02:57:27.631Z,108.98
2024-05-09T02:58:27.638Z,109.01
2024-05-09T02:59:27.824Z,110.98
2024-05-09T03:00:35.271Z,109.61
2024-05-09T03:01:28.684Z,109.75
2024-05-09T03:02:27.735Z,109.80
2024-05-09T03:03:27.822Z,110.07
2024-05-09T03:04:27.634Z,109.57
2024-05-09T03:05:27.683Z,109.36
2024-05-09T03:06:27.634Z,108.78
2024-05-09T03:07:27.647Z,109.70
2024-05-09T03:08:27.654Z,108.30
2024-05-09T03:09:27.635Z,109.43
2024-05-09T03:11:27.752Z,106.75
2024-05-09T03:12:27.787Z,108.79
2024-05-09T03:13:27.624Z,109.74
2024-05-09T03:14:27.669Z,109.15
2024-05-09T03:15:27.626Z,108.62
2024-05-09T03:16:27.635Z,108.14
2024-05-09T03:17:27.829Z,106.99
2024-05-09T03:18:27.739Z,108.71
2024-05-09T03:19:27.732Z,108.21
2024-05-09T03:20:33.209Z,107.93
2024-05-09T03:21:28.701Z,108.02
2024-05-09T03:22:27.702Z,108.15
2024-05-09T03:23:27.697Z,108.25
2024-05-09T03:24:27.648Z,108.04
2024-05-09T03:25:27.669Z,109.51
2024-05-09T03:26:27.776Z,107.72
2024-05-09T03:27:27.667Z,106.49
2024-05-09T03:28:27.676Z,107.52
2024-05-09T03:29:27.730Z,105.85
2024-05-09T03:30:36.049Z,106.48
2024-05-09T03:31:28.695Z,106.64
2024-05-09T03:32:27.853Z,107.05
2024-05-09T03:33:27.961Z,107.56
2024-05-09T03:34:27.743Z,106.87
2024-05-09T03:35:27.842Z,108.72
2024-05-09T03:36:27.703Z,107.98
2024-05-09T03:37:27.744Z,106.55
2024-05-09T03:38:27.712Z,107.06
2024-05-09T03:39:27.703Z,107.05
2024-05-09T03:40:30.982Z,106.09
2024-05-09T03:41:27.795Z,106.16
2024-05-09T03:42:27.701Z,106.45
2024-05-09T03:43:27.707Z,106.20
2024-05-09T03:44:27.818Z,106.15
2024-05-09T03:45:27.718Z,107.32
2024-05-09T03:46:27.720Z,105.66
2024-05-09T03:47:27.995Z,106.28
2024-05-09T03:48:27.850Z,106.11
2024-05-09T03:49:27.797Z,106.30
2024-05-09T03:50:33.706Z,105.73
2024-05-09T03:51:28.708Z,105.89
2024-05-09T03:52:27.772Z,106.35
2024-05-09T03:53:27.761Z,106.23
2024-05-09T03:54:27.737Z,107.93
2024-05-09T03:55:27.732Z,106.91
2024-05-09T03:56:27.811Z,107.31
2024-05-09T03:57:27.767Z,107.25
2024-05-09T03:58:27.728Z,106.96
2024-05-09T03:59:27.905Z,105.44
2024-05-09T04:00:35.254Z,105.52
2024-05-09T04:01:28.770Z,105.69
2024-05-09T04:02:27.874Z,105.80
2024-05-09T04:03:28.005Z,105.77
2024-05-09T04:04:27.806Z,105.53
2024-05-09T04:05:27.774Z,104.93
2024-05-09T04:06:27.752Z,103.80
2024-05-09T04:07:27.774Z,107.49
2024-05-09T04:08:27.782Z,105.54
2024-05-09T04:09:27.750Z,105.14
2024-05-09T04:10:32.803Z,103.95
2024-05-09T04:11:28.834Z,104.11
2024-05-09T04:12:27.870Z,104.34
2024-05-09T04:13:27.752Z,105.22
2024-05-09T04:14:27.895Z,105.29
2024-05-09T04:15:27.750Z,104.35
2024-05-09T04:16:27.762Z,106.80
2024-05-09T04:17:27.893Z,104.14
2024-05-09T04:18:35.366Z,50.00
2024-05-09T04:19:35.257Z,50.00
2024-05-09T04:20:39.030Z,50.00
2024-05-09T04:21:36.156Z,50.00
2024-05-09T04:22:35.179Z,50.00
2024-05-09T04:23:35.227Z,50.00
2024-05-09T04:24:35.193Z,50.00
2024-05-09T04:25:35.215Z,50.00
2024-05-09T04:26:35.223Z,50.78
2024-05-09T04:27:35.197Z,52.43
2024-05-09T04:28:35.217Z,51.55
2024-05-09T04:29:35.210Z,51.31
2024-05-09T04:30:39.227Z,51.70
2024-05-09T04:31:47.310Z,50.00
2024-05-09T04:32:47.398Z,50.00
2024-05-09T04:33:47.355Z,50.00
2024-05-09T04:34:47.319Z,50.00
2024-05-09T04:35:47.336Z,50.00
2024-05-09T04:36:47.275Z,51.69
2024-05-09T04:37:47.264Z,51.08
2024-05-09T04:38:47.272Z,52.26
2024-05-09T04:39:47.249Z,52.74
2024-05-09T04:40:47.341Z,51.76
2024-05-09T04:41:47.279Z,51.73
2024-05-09T04:42:47.298Z,51.67
2024-05-09T04:43:47.295Z,50.00
2024-05-09T04:44:47.246Z,50.47
2024-05-09T04:45:47.276Z,52.17
2024-05-09T04:46:47.333Z,51.74
2024-05-09T04:47:47.516Z,50.54
2024-05-09T04:48:47.291Z,50.84
2024-05-09T04:49:47.277Z,52.64
2024-05-09T04:50:47.340Z,52.14
2024-05-09T04:51:47.274Z,50.72
2024-05-09T04:52:47.328Z,51.58
2024-05-09T04:53:47.312Z,52.75
2024-05-09T04:54:47.275Z,52.52
2024-05-09T04:55:47.437Z,52.35
2024-05-09T04:56:47.277Z,52.05
2024-05-09T04:57:47.294Z,51.89
2024-05-09T04:58:47.359Z,51.36
2024-05-09T04:59:47.384Z,51.02
2024-05-09T05:00:47.515Z,52.38
2024-05-09T05:01:47.555Z,51.63
2024-05-09T05:02:47.576Z,51.68
2024-05-09T05:03:47.647Z,52.62
2024-05-09T05:04:47.717Z,52.97
2024-05-09T05:05:47.579Z,53.53
2024-05-09T05:06:47.561Z,52.64
2024-05-09T05:07:47.642Z,52.89
2024-05-09T05:08:47.668Z,53.74
2024-05-09T05:09:47.700Z,52.42
2024-05-09T05:10:48.642Z,52.45
2024-05-09T05:11:47.870Z,52.57
2024-05-09T05:12:47.801Z,52.71
2024-05-09T05:13:47.853Z,52.12
2024-05-09T05:14:47.864Z,53.16
2024-05-09T05:15:47.866Z,51.80
2024-05-09T05:16:47.974Z,51.28
2024-05-09T05:17:48.138Z,51.57
2024-05-09T05:18:48.039Z,53.08
2024-05-09T05:19:48.206Z,53.09
2024-05-09T05:20:48.166Z,50.88
2024-05-09T05:21:48.113Z,50.00
2024-05-09T05:22:48.188Z,51.37
2024-05-09T05:23:48.211Z,53.28
2024-05-09T05:24:48.211Z,52.51
2024-05-09T05:25:48.514Z,52.42
2024-05-09T05:26:48.304Z,52.04
2024-05-09T05:27:48.311Z,53.55
2024-05-09T05:28:48.398Z,53.71
2024-05-09T05:29:48.427Z,53.42
2024-05-09T05:30:48.459Z,52.92
2024-05-09T05:31:48.557Z,52.82
2024-05-09T05:32:48.707Z,53.08
2024-05-09T05:33:48.581Z,53.75
2024-05-09T05:34:48.607Z,52.54
2024-05-09T05:35:48.600Z,52.46
2024-05-09T05:36:48.612Z,52.87
2024-05-09T05:37:48.732Z,52.13
2024-05-09T05:38:48.773Z,52.16
2024-05-09T05:39:48.718Z,51.07
2024-05-09T05:40:48.763Z,51.67
2024-05-09T05:41:48.790Z,52.49
2024-05-09T05:42:48.793Z,50.99
2024-05-09T05:43:48.944Z,52.18
2024-05-09T05:44:48.901Z,52.15
2024-05-09T05:45:48.923Z,50.03
2024-05-09T05:46:48.990Z,52.33
2024-05-09T05:47:49.096Z,50.00
2024-05-09T05:48:49.340Z,52.16
2024-05-09T05:49:49.056Z,54.12
2024-05-09T05:50:49.153Z,53.17
2024-05-09T05:51:49.147Z,52.64
2024-05-09T05:52:49.148Z,51.50
2024-05-09T05:53:49.180Z,51.78
2024-05-09T05:54:49.184Z,51.35
2024-05-09T05:55:49.242Z,53.06
2024-05-09T05:56:49.258Z,54.16
2024-05-09T05:57:49.312Z,53.11
2024-05-09T05:58:49.347Z,52.27
2024-05-09T05:59:49.342Z,51.27
2024-05-09T06:00:49.408Z,51.50
2024-05-09T06:01:49.431Z,52.77
2024-05-09T06:02:49.547Z,53.00
2024-05-09T06:03:49.500Z,50.58
2024-05-09T06:04:49.568Z,52.26
2024-05-09T06:05:49.558Z,51.94
2024-05-09T06:06:49.474Z,51.99
2024-05-09T06:07:49.561Z,51.97
2024-05-09T06:08:49.539Z,54.16
2024-05-09T06:09:50.534Z,52.76
2024-05-09T06:10:49.753Z,52.50
2024-05-09T06:11:49.681Z,51.51
2024-05-09T06:12:49.629Z,51.27
2024-05-09T06:13:49.677Z,51.95
2024-05-09T06:14:49.680Z,51.21
2024-05-09T06:15:49.740Z,53.28
2024-05-09T06:16:49.763Z,50.87
2024-05-09T06:17:49.899Z,52.52
2024-05-09T06:18:49.982Z,50.60
2024-05-09T06:19:49.938Z,50.21
2024-05-09T06:20:49.903Z,51.65
2024-05-09T06:21:49.838Z,52.35
2024-05-09T06:22:49.945Z,53.96
2024-05-09T06:23:49.911Z,53.16
2024-05-09T06:24:49.923Z,51.56
2024-05-09T06:25:50.010Z,54.66
2024-05-09T06:26:49.973Z,54.14
2024-05-09T06:27:50.007Z,50.88
2024-05-09T06:28:50.083Z,52.27
2024-05-09T06:29:50.052Z,53.46
2024-05-09T06:30:50.068Z,51.62
2024-05-09T06:31:50.148Z,53.00
2024-05-09T06:32:50.249Z,52.13
2024-05-09T06:33:50.293Z,53.49
2024-05-09T06:34:50.232Z,55.08
2024-05-09T06:35:50.261Z,52.91
2024-05-09T06:36:50.256Z,54.42
2024-05-09T06:37:50.264Z,52.13
2024-05-09T06:38:50.307Z,53.83
2024-05-09T06:39:50.275Z,53.17
2024-05-09T06:40:50.314Z,51.73
2024-05-09T06:41:50.314Z,50.80
2024-05-09T06:42:50.332Z,50.03
2024-05-09T06:43:50.383Z,55.01
2024-05-09T06:44:50.356Z,52.36
2024-05-09T06:45:50.555Z,53.96
2024-05-09T06:46:50.428Z,54.45
2024-05-09T06:47:50.516Z,52.42
2024-05-09T06:48:50.654Z,52.11
2024-05-09T06:49:50.551Z,53.55
2024-05-09T06:50:50.657Z,52.79
2024-05-09T06:51:50.429Z,52.51
2024-05-09T06:52:50.498Z,51.04
2024-05-09T06:53:50.432Z,51.84
2024-05-09T06:54:50.488Z,51.94
2024-05-09T06:55:50.544Z,51.34
2024-05-09T06:56:50.477Z,51.43
2024-05-09T06:57:50.484Z,52.86
2024-05-09T06:58:50.524Z,53.01
2024-05-09T06:59:50.498Z,52.18
2024-05-09T07:00:50.564Z,51.93
2024-05-09T07:01:50.630Z,51.94
2024-05-09T07:02:50.573Z,53.42
2024-05-09T07:03:50.559Z,52.86
2024-05-09T07:04:50.658Z,52.30
2024-05-09T07:05:50.587Z,52.64
2024-05-09T07:06:50.563Z,52.29
2024-05-09T07:07:50.594Z,54.18
2024-05-09T07:08:52.398Z,52.70
2024-05-09T07:09:50.610Z,53.60
2024-05-09T07:10:50.695Z,52.43
2024-05-09T07:11:50.769Z,53.44
2024-05-09T07:12:50.643Z,51.24
2024-05-09T07:13:50.813Z,50.69
2024-05-09T07:14:50.711Z,53.86
2024-05-09T07:15:50.712Z,53.90
2024-05-09T07:16:50.768Z,52.59
2024-05-09T07:17:50.787Z,52.38
2024-05-09T07:18:50.990Z,54.55
2024-05-09T07:19:50.833Z,52.99
2024-05-09T07:20:51.171Z,50.83
2024-05-09T07:21:50.737Z,52.25
2024-05-09T07:22:50.805Z,53.14
2024-05-09T07:23:50.793Z,52.50
2024-05-09T07:24:50.786Z,53.63
2024-05-09T07:25:50.858Z,52.84
2024-05-09T07:26:50.869Z,51.88
2024-05-09T07:27:50.815Z,51.74
2024-05-09T07:28:50.923Z,53.12
2024-05-09T07:29:50.828Z,52.98
2024-05-09T07:30:50.862Z,52.64
2024-05-09T07:31:50.924Z,55.25
2024-05-09T07:32:51.052Z,54.25
2024-05-09T07:33:51.047Z,53.69
2024-05-09T07:34:50.921Z,54.18
2024-05-09T07:35:50.903Z,53.50
2024-05-09T07:36:50.896Z,54.47
2024-05-09T07:37:50.956Z,54.43
2024-05-09T07:38:50.965Z,51.94
2024-05-09T07:39:50.902Z,52.92
2024-05-09T07:40:50.990Z,54.39
2024-05-09T07:41:50.936Z,53.33
2024-05-09T07:42:50.984Z,53.92
2024-05-09T07:43:50.990Z,53.12
2024-05-09T07:44:50.952Z,51.31
2024-05-09T07:45:54.265Z,52.31
2024-05-09T07:48:13.590Z,52.44
2024-05-09T07:49:16.436Z,52.57
2024-05-09T07:51:32.737Z,52.78
2024-05-09T07:53:17.577Z,52.79
2024-05-09T07:53:35.382Z,52.85
2024-05-09T07:53:54.785Z,52.84
2024-05-09T07:54:52.234Z,53.00
2024-05-09T07:55:51.100Z,54.81
2024-05-09T07:56:51.168Z,56.44
2024-05-09T07:57:51.069Z,58.62
2024-05-09T07:58:51.336Z,57.72
2024-05-09T07:59:51.014Z,58.85
2024-05-09T08:00:51.083Z,57.31
2024-05-09T08:01:51.170Z,54.05
2024-05-09T08:02:51.047Z,54.26
2024-05-09T08:03:51.132Z,53.89
2024-05-09T08:04:51.122Z,53.05
2024-05-09T08:05:51.100Z,51.69
2024-05-09T08:06:51.074Z,50.96
2024-05-09T08:07:51.032Z,50.00
2024-05-09T08:08:51.041Z,52.28
2024-05-09T08:09:51.095Z,52.80
2024-05-09T08:10:51.090Z,51.97
2024-05-09T08:11:51.080Z,52.70
2024-05-09T08:12:51.102Z,52.12
2024-05-09T08:13:51.016Z,51.27
2024-05-09T08:14:51.025Z,53.77
2024-05-09T08:15:51.066Z,53.09
2024-05-09T08:16:51.049Z,53.67
2024-05-09T08:17:51.084Z,53.83
2024-05-09T08:18:51.158Z,50.59
2024-05-09T08:19:51.073Z,52.47
2024-05-09T08:20:51.056Z,51.71
2024-05-09T08:21:51.111Z,52.49
2024-05-09T08:22:51.054Z,51.65
2024-05-09T08:23:51.019Z,52.44
2024-05-09T08:24:51.055Z,52.07
2024-05-09T08:25:51.054Z,52.26
2024-05-09T08:26:51.054Z,51.65
2024-05-09T08:27:51.145Z,52.09
2024-05-09T08:28:51.063Z,50.96
2024-05-09T08:29:51.088Z,50.00
2024-05-09T08:30:51.168Z,51.50
2024-05-09T08:31:51.139Z,51.25
2024-05-09T08:32:51.359Z,50.60
2024-05-09T08:33:51.413Z,53.50
2024-05-09T08:34:51.428Z,52.23
2024-05-09T08:35:51.396Z,53.10
2024-05-09T08:36:51.481Z,53.09
2024-05-09T08:37:51.578Z,52.21
2024-05-09T08:38:51.571Z,52.42
2024-05-09T08:39:51.743Z,52.91
2024-05-09T08:40:51.765Z,51.57
2024-05-09T08:41:51.782Z,51.76
2024-05-09T08:42:51.968Z,52.67
2024-05-09T08:43:51.932Z,51.78
2024-05-09T08:44:51.965Z,51.82
2024-05-09T08:45:52.125Z,50.03
2024-05-09T08:46:52.130Z,52.61
2024-05-09T08:47:52.341Z,51.57
2024-05-09T08:48:52.385Z,53.92
2024-05-09T08:49:52.414Z,54.20
2024-05-09T08:50:52.434Z,51.10
2024-05-09T08:51:52.502Z,53.37
2024-05-09T08:52:52.619Z,52.42
2024-05-09T08:53:52.591Z,52.97
2024-05-09T08:54:52.757Z,52.93
2024-05-09T08:55:52.744Z,53.42
2024-05-09T08:56:52.815Z,53.71
2024-05-09T08:57:52.958Z,53.02
2024-05-09T08:58:52.950Z,52.66
2024-05-09T08:59:53.012Z,51.87
2024-05-09T09:00:53.161Z,54.39
2024-05-09T09:01:53.230Z,52.50
2024-05-09T09:02:53.238Z,54.18
2024-05-09T09:03:53.443Z,51.86
2024-05-09T09:04:53.457Z,53.57
2024-05-09T09:05:53.454Z,51.40
2024-05-09T09:06:56.324Z,52.03
2024-05-09T09:07:53.518Z,54.28
2024-05-09T09:08:53.518Z,53.75
2024-05-09T09:09:53.540Z,52.79
2024-05-09T09:10:53.569Z,52.83
2024-05-09T09:11:53.570Z,52.08
2024-05-09T09:12:53.579Z,54.11
2024-05-09T09:13:53.539Z,52.11
2024-05-09T09:14:53.514Z,51.79
2024-05-09T09:15:53.570Z,52.54
2024-05-09T09:16:53.522Z,53.93
2024-05-09T09:17:53.599Z,51.72
2024-05-09T09:18:53.618Z,53.20
2024-05-09T09:19:53.591Z,52.84
2024-05-09T09:20:53.523Z,51.27
2024-05-09T09:21:53.533Z,53.71
2024-05-09T09:22:53.566Z,51.84
2024-05-09T09:23:53.527Z,51.70
2024-05-09T09:24:53.515Z,52.08
2024-05-09T09:25:53.501Z,52.80
2024-05-09T09:26:53.526Z,51.64
2024-05-09T09:27:53.599Z,51.31
2024-05-09T09:28:53.515Z,51.69
2024-05-09T09:29:53.503Z,53.07
2024-05-09T09:30:53.582Z,51.24
2024-05-09T09:31:53.537Z,52.57
2024-05-09T09:32:53.617Z,52.91
2024-05-09T09:33:53.864Z,53.08
2024-05-09T09:34:53.748Z,55.70
2024-05-09T09:35:53.746Z,53.79
2024-05-09T09:36:53.850Z,56.73
2024-05-09T09:37:53.916Z,53.89
2024-05-09T09:38:53.945Z,53.56
2024-05-09T09:39:54.071Z,52.63
2024-05-09T09:40:54.189Z,54.46
2024-05-09T09:41:54.145Z,53.64
2024-05-09T09:42:54.261Z,54.68
2024-05-09T09:43:54.313Z,54.42
2024-05-09T09:45:02.196Z,52.64
2024-05-09T09:45:55.588Z,52.73
2024-05-09T09:46:54.445Z,52.93
2024-05-09T09:47:54.501Z,53.57
2024-05-09T09:48:54.463Z,54.56
2024-05-09T09:49:54.463Z,54.19
2024-05-09T09:50:54.413Z,54.50
2024-05-09T09:51:54.501Z,54.50
2024-05-09T09:52:54.375Z,53.40
2024-05-09T09:53:54.424Z,53.12
2024-05-09T09:54:54.516Z,54.49
2024-05-09T09:55:54.589Z,53.05
2024-05-09T09:56:54.660Z,54.78
2024-05-09T09:57:54.865Z,53.80
2024-05-09T09:58:54.763Z,52.18
2024-05-09T09:59:54.850Z,51.86
2024-05-09T10:00:55.035Z,53.58
2024-05-09T10:01:55.009Z,54.02
2024-05-09T10:02:55.165Z,53.86
2024-05-09T10:03:55.328Z,53.68
2024-05-09T10:04:55.442Z,53.57
2024-05-09T10:05:55.309Z,52.44
2024-05-09T10:06:55.391Z,53.06
2024-05-09T10:07:55.424Z,53.33
2024-05-09T10:08:55.485Z,53.78
2024-05-09T10:09:55.645Z,54.05
2024-05-09T10:10:55.741Z,54.10
2024-05-09T10:12:55.735Z,53.91
2024-05-09T10:13:55.799Z,53.99
2024-05-09T10:14:55.863Z,51.68
2024-05-09T10:15:55.969Z,53.54
2024-05-09T10:16:55.982Z,53.78
2024-05-09T10:17:56.164Z,52.33
2024-05-09T10:18:56.293Z,54.96
2024-05-09T10:19:56.276Z,54.57
2024-05-09T10:20:56.349Z,52.14
2024-05-09T10:21:56.310Z,52.11
2024-05-09T10:22:56.338Z,53.34
2024-05-09T10:23:56.387Z,52.45
2024-05-09T10:24:57.461Z,53.07
2024-05-09T10:25:56.548Z,53.33
2024-05-09T10:26:56.583Z,53.18
2024-05-09T10:27:56.732Z,53.24
2024-05-09T10:28:56.731Z,53.69
2024-05-09T10:29:56.773Z,50.85
2024-05-09T10:30:56.861Z,53.04
2024-05-09T10:31:56.941Z,53.46
2024-05-09T10:32:57.106Z,51.81
2024-05-09T10:33:57.212Z,53.26
2024-05-09T10:34:57.202Z,53.91
2024-05-09T10:35:57.232Z,52.25
2024-05-09T10:36:57.328Z,53.72
2024-05-09T10:37:57.369Z,52.02
2024-05-09T10:38:57.419Z,51.52
2024-05-09T10:39:57.540Z,53.40
2024-05-09T10:40:57.559Z,52.61
2024-05-09T10:41:57.636Z,53.51
2024-05-09T10:42:57.790Z,53.16
2024-05-09T10:43:57.766Z,52.34
2024-05-09T10:44:57.852Z,52.73
2024-05-09T10:45:57.927Z,53.04
2024-05-09T10:46:58.001Z,52.38
2024-05-09T10:47:58.251Z,53.87
2024-05-09T10:48:58.227Z,52.25
2024-05-09T10:49:58.220Z,52.89
2024-05-09T10:50:58.279Z,54.39
2024-05-09T10:51:58.361Z,51.28
2024-05-09T10:52:58.418Z,54.36
2024-05-09T10:53:58.454Z,52.78
2024-05-09T10:54:59.578Z,53.48
2024-05-09T10:55:58.607Z,54.01
2024-05-09T10:56:58.685Z,52.94
2024-05-09T10:57:58.776Z,50.00
2024-05-09T10:58:58.793Z,54.38
2024-05-09T10:59:58.869Z,53.70
2024-05-09T11:01:00.065Z,52.78
2024-05-09T11:01:59.038Z,54.12
2024-05-09T11:02:59.114Z,54.57
2024-05-09T11:03:59.305Z,55.26
2024-05-09T11:04:59.350Z,53.66
2024-05-09T11:05:59.291Z,54.85
2024-05-09T11:07:00.988Z,51.73
2024-05-09T11:07:59.342Z,53.03
2024-05-09T11:08:59.351Z,54.09
2024-05-09T11:09:59.348Z,54.90
2024-05-09T11:10:59.447Z,53.79
2024-05-09T11:11:59.370Z,51.95
2024-05-09T11:12:59.417Z,51.03
2024-05-09T11:13:59.358Z,51.56
2024-05-09T11:14:59.327Z,50.63
2024-05-09T11:15:59.517Z,52.51
2024-05-09T11:16:59.333Z,54.05
2024-05-09T11:17:59.397Z,51.28
2024-05-09T11:18:59.693Z,53.31
2024-05-09T11:19:59.387Z,51.39
2024-05-09T11:20:59.348Z,52.91
2024-05-09T11:21:59.355Z,54.85
2024-05-09T11:22:59.355Z,53.29
2024-05-09T11:23:59.351Z,52.66
2024-05-09T11:24:59.388Z,50.85
2024-05-09T11:25:59.482Z,52.56
2024-05-09T11:26:59.362Z,50.77
2024-05-09T11:27:59.398Z,53.96
2024-05-09T11:28:59.371Z,54.35
2024-05-09T11:29:59.345Z,52.34
2024-05-09T11:30:59.402Z,53.19
2024-05-09T11:31:59.364Z,54.28
2024-05-09T11:32:59.505Z,52.67
2024-05-09T11:33:59.400Z,53.30
2024-05-09T11:34:59.341Z,51.60
2024-05-09T11:35:59.316Z,52.08
2024-05-09T11:36:59.387Z,52.92
2024-05-09T11:37:59.381Z,50.35
2024-05-09T11:38:59.344Z,53.89
2024-05-09T11:39:59.418Z,52.69
2024-05-09T11:40:59.337Z,54.21
2024-05-09T11:41:59.318Z,54.57
2024-05-09T11:42:59.452Z,52.84
2024-05-09T11:43:59.339Z,52.66
2024-05-09T11:44:59.372Z,51.88
2024-05-09T11:45:59.435Z,52.00
2024-05-09T11:46:59.337Z,50.20
2024-05-09T11:47:59.406Z,53.22
2024-05-09T11:48:59.535Z,53.83
2024-05-09T11:49:59.662Z,53.42
2024-05-09T11:50:59.398Z,51.91
2024-05-09T11:51:59.569Z,54.27
2024-05-09T11:52:59.511Z,54.71
2024-05-09T11:53:59.543Z,54.04
2024-05-09T11:54:59.633Z,51.76
2024-05-09T11:55:59.659Z,55.31
2024-05-09T11:56:59.722Z,51.00
2024-05-09T11:57:59.986Z,50.75
2024-05-09T11:58:59.846Z,52.52
2024-05-09T11:59:59.900Z,52.25
2024-05-09T12:01:00.007Z,51.74
2024-05-09T12:02:00.128Z,52.78
2024-05-09T12:03:00.037Z,51.69
2024-05-09T12:04:00.491Z,51.95
2024-05-09T12:05:00.324Z,52.29
2024-05-09T12:06:00.495Z,52.02
2024-05-09T12:07:00.304Z,52.86
2024-05-09T12:08:00.298Z,52.80
2024-05-09T12:09:00.392Z,53.31
2024-05-09T12:10:00.641Z,51.82
2024-05-09T12:11:00.722Z,52.99
2024-05-09T12:12:00.460Z,51.46
2024-05-09T12:13:00.579Z,51.04
2024-05-09T12:14:00.578Z,54.82
2024-05-09T12:15:00.686Z,52.70
2024-05-09T12:16:00.791Z,54.00
2024-05-09T12:17:00.786Z,55.07
2024-05-09T12:18:03.578Z,52.54
2024-05-09T12:19:00.904Z,53.13
2024-05-09T12:20:00.809Z,53.12
2024-05-09T12:21:00.832Z,52.71
2024-05-09T12:22:00.822Z,55.65
2024-05-09T12:23:00.785Z,52.37
2024-05-09T12:24:00.781Z,53.79
2024-05-09T12:25:00.871Z,53.69
2024-05-09T12:26:00.859Z,54.45
2024-05-09T12:27:00.797Z,54.91
2024-05-09T12:28:01.087Z,50.10
2024-05-09T12:29:00.801Z,54.35
2024-05-09T12:30:00.793Z,51.06
2024-05-09T12:31:01.161Z,52.19
2024-05-09T12:32:00.910Z,52.88
2024-05-09T12:33:00.898Z,52.80
2024-05-09T12:34:00.885Z,54.36
2024-05-09T12:35:00.882Z,54.87
2024-05-09T12:36:00.935Z,54.20
2024-05-09T12:37:00.864Z,53.60
2024-05-09T12:38:00.816Z,53.99
2024-05-09T12:39:00.808Z,55.36
2024-05-09T12:40:00.881Z,54.41
2024-05-09T12:41:00.815Z,53.61
2024-05-09T12:42:00.822Z,53.14
2024-05-09T12:43:00.898Z,51.67
2024-05-09T12:44:00.826Z,54.67
2024-05-09T12:45:00.872Z,54.70
2024-05-09T12:46:00.969Z,56.10
2024-05-09T12:47:00.833Z,53.23
2024-05-09T12:48:01.017Z,52.84
2024-05-09T12:49:01.319Z,53.46
2024-05-09T12:50:00.888Z,55.48
2024-05-09T12:51:00.831Z,53.78
2024-05-09T12:52:00.855Z,53.19